sensor_id;sensor_type;location;lat;lon;timestamp;P1;durP1;ratioP1;P2;durP2;ratioP2
67595;SDS011;54410;48.694;8.934;2022-08-11T00:01:43;3.88;;;2.70;;
67595;SDS011;54410;48.694;8.934;2022-08-11T00:04:10;5.68;;;3.00;;
67595;SDS011;54410;48.694;8.934;2022-08-11T00:06:37;2.97;;;2.63;;
67595;SDS011;54410;48.694;8.934;2022-08-11T00:09:04;5.60;;;2.78;;
67595;SDS011;54410;48.694;8.934;2022-08-11T00:11:34;4.28;;;3.03;;
67595;SDS011;54410;48.694;8.934;2022-08-11T00:14:00;4.55;;;2.70;;
67595;SDS011;54410;48.694;8.934;2022-08-11T00:16:27;3.95;;;2.58;;
67595;SDS011;54410;48.694;8.934;2022-08-11T00:18:54;2.97;;;2.33;;
67595;SDS011;54410;48.694;8.934;2022-08-11T00:21:21;4.03;;;2.03;;
67595;SDS011;54410;48.694;8.934;2022-08-11T00:23:52;5.15;;;2.53;;
67595;SDS011;54410;48.694;8.934;2022-08-11T00:26:19;3.42;;;2.13;;
67595;SDS011;54410;48.694;8.934;2022-08-11T00:28:46;4.30;;;2.17;;
67595;SDS011;54410;48.694;8.934;2022-08-11T00:31:19;4.88;;;2.38;;
67595;SDS011;54410;48.694;8.934;2022-08-11T00:33:46;2.67;;;2.33;;
67595;SDS011;54410;48.694;8.934;2022-08-11T00:36:14;4.53;;;2.30;;
67595;SDS011;54410;48.694;8.934;2022-08-11T00:38:41;2.50;;;2.30;;
67595;SDS011;54410;48.694;8.934;2022-08-11T01:02:17;3.88;;;2.42;;
67595;SDS011;54410;48.694;8.934;2022-08-11T01:10:22;4.95;;;2.78;;
67595;SDS011;54410;48.694;8.934;2022-08-11T01:15:53;3.85;;;2.70;;
67595;SDS011;54410;48.694;8.934;2022-08-11T01:32:09;3.55;;;2.60;;
67595;SDS011;54410;48.694;8.934;2022-08-11T01:37:41;2.55;;;2.35;;
67595;SDS011;54410;48.694;8.934;2022-08-11T01:56:23;2.67;;;2.38;;
67595;SDS011;54410;48.694;8.934;2022-08-11T01:59:18;3.70;;;2.50;;
67595;SDS011;54410;48.694;8.934;2022-08-11T02:05:39;4.10;;;2.40;;
67595;SDS011;54410;48.694;8.934;2022-08-11T02:17:37;2.58;;;2.30;;
67595;SDS011;54410;48.694;8.934;2022-08-11T02:25:55;3.97;;;2.50;;
67595;SDS011;54410;48.694;8.934;2022-08-11T02:28:28;3.30;;;3.00;;
67595;SDS011;54410;48.694;8.934;2022-08-11T02:31:02;4.90;;;3.15;;
67595;SDS011;54410;48.694;8.934;2022-08-11T02:33:55;3.35;;;2.85;;
67595;SDS011;54410;48.694;8.934;2022-08-11T02:36:31;5.80;;;2.70;;
67595;SDS011;54410;48.694;8.934;2022-08-11T02:39:06;3.47;;;2.58;;
67595;SDS011;54410;48.694;8.934;2022-08-11T02:41:42;2.70;;;2.50;;
67595;SDS011;54410;48.694;8.934;2022-08-11T02:44:43;4.45;;;2.70;;
67595;SDS011;54410;48.694;8.934;2022-08-11T02:56:48;3.20;;;2.92;;
67595;SDS011;54410;48.694;8.934;2022-08-11T03:04:51;4.50;;;3.17;;
67595;SDS011;54410;48.694;8.934;2022-08-11T03:08:22;3.20;;;2.90;;
67595;SDS011;54410;48.694;8.934;2022-08-11T03:10:24;5.05;;;3.58;;
67595;SDS011;54410;48.694;8.934;2022-08-11T03:13:18;3.83;;;3.00;;
67595;SDS011;54410;48.694;8.934;2022-08-11T03:16:08;3.70;;;2.97;;
67595;SDS011;54410;48.694;8.934;2022-08-11T03:21:46;4.95;;;3.33;;
67595;SDS011;54410;48.694;8.934;2022-08-11T03:24:14;3.08;;;2.88;;
67595;SDS011;54410;48.694;8.934;2022-08-11T03:26:58;5.03;;;3.25;;
67595;SDS011;54410;48.694;8.934;2022-08-11T03:29:29;4.05;;;3.30;;
67595;SDS011;54410;48.694;8.934;2022-08-11T03:32:00;5.40;;;3.10;;
67595;SDS011;54410;48.694;8.934;2022-08-11T03:34:28;3.88;;;3.58;;
67595;SDS011;54410;48.694;8.934;2022-08-11T03:39:47;3.90;;;3.47;;
67595;SDS011;54410;48.694;8.934;2022-08-11T03:47:42;3.53;;;3.05;;
67595;SDS011;54410;48.694;8.934;2022-08-11T03:53:15;3.72;;;3.10;;
67595;SDS011;54410;48.694;8.934;2022-08-11T04:01:40;4.93;;;3.10;;
67595;SDS011;54410;48.694;8.934;2022-08-11T04:11:46;3.95;;;3.47;;
67595;SDS011;54410;48.694;8.934;2022-08-11T04:17:21;6.20;;;3.92;;
67595;SDS011;54410;48.694;8.934;2022-08-11T04:20:22;6.18;;;3.88;;
67595;SDS011;54410;48.694;8.934;2022-08-11T04:28:39;3.75;;;3.22;;
67595;SDS011;54410;48.694;8.934;2022-08-11T04:31:19;4.40;;;3.30;;
67595;SDS011;54410;48.694;8.934;2022-08-11T04:51:24;5.18;;;3.42;;
67595;SDS011;54410;48.694;8.934;2022-08-11T04:57:21;5.65;;;2.80;;
67595;SDS011;54410;48.694;8.934;2022-08-11T05:00:11;2.83;;;2.38;;
67595;SDS011;54410;48.694;8.934;2022-08-11T05:20:48;2.97;;;1.92;;
67595;SDS011;54410;48.694;8.934;2022-08-11T05:23:34;2.97;;;1.95;;
67595;SDS011;54410;48.694;8.934;2022-08-11T05:26:23;5.20;;;1.88;;
67595;SDS011;54410;48.694;8.934;2022-08-11T05:29:27;3.40;;;1.65;;
67595;SDS011;54410;48.694;8.934;2022-08-11T05:32:21;1.90;;;1.65;;
67595;SDS011;54410;48.694;8.934;2022-08-11T05:35:05;3.85;;;1.52;;
67595;SDS011;54410;48.694;8.934;2022-08-11T05:40:00;2.40;;;1.70;;
67595;SDS011;54410;48.694;8.934;2022-08-11T05:43:01;3.33;;;1.80;;
67595;SDS011;54410;48.694;8.934;2022-08-11T05:45:59;2.40;;;1.80;;
67595;SDS011;54410;48.694;8.934;2022-08-11T05:48:45;1.73;;;1.45;;
67595;SDS011;54410;48.694;8.934;2022-08-11T05:51:34;2.83;;;1.70;;
67595;SDS011;54410;48.694;8.934;2022-08-11T05:54:23;2.40;;;1.40;;
67595;SDS011;54410;48.694;8.934;2022-08-11T05:57:08;3.45;;;2.05;;
67595;SDS011;54410;48.694;8.934;2022-08-11T05:59:34;4.30;;;1.83;;
67595;SDS011;54410;48.694;8.934;2022-08-11T06:02:01;2.95;;;1.58;;
67595;SDS011;54410;48.694;8.934;2022-08-11T06:04:28;3.70;;;1.70;;
67595;SDS011;54410;48.694;8.934;2022-08-11T06:06:56;1.50;;;1.40;;
67595;SDS011;54410;48.694;8.934;2022-08-11T06:10:09;1.25;;;1.15;;
67595;SDS011;54410;48.694;8.934;2022-08-11T06:12:16;2.33;;;1.60;;
67595;SDS011;54410;48.694;8.934;2022-08-11T06:14:48;3.83;;;1.70;;
67595;SDS011;54410;48.694;8.934;2022-08-11T06:17:27;3.17;;;1.70;;
67595;SDS011;54410;48.694;8.934;2022-08-11T06:20:02;2.40;;;1.88;;
67595;SDS011;54410;48.694;8.934;2022-08-11T06:22:29;3.95;;;1.80;;
67595;SDS011;54410;48.694;8.934;2022-08-11T06:24:56;6.78;;;2.00;;
67595;SDS011;54410;48.694;8.934;2022-08-11T06:27:24;6.00;;;1.80;;
67595;SDS011;54410;48.694;8.934;2022-08-11T06:29:51;4.05;;;1.85;;
67595;SDS011;54410;48.694;8.934;2022-08-11T06:32:18;8.45;;;2.15;;
67595;SDS011;54410;48.694;8.934;2022-08-11T06:34:50;4.47;;;2.20;;
67595;SDS011;54410;48.694;8.934;2022-08-11T06:37:29;6.75;;;2.10;;
67595;SDS011;54410;48.694;8.934;2022-08-11T06:40:35;7.47;;;2.17;;
67595;SDS011;54410;48.694;8.934;2022-08-11T06:43:16;5.57;;;1.85;;
67595;SDS011;54410;48.694;8.934;2022-08-11T06:48:27;6.65;;;1.95;;
67595;SDS011;54410;48.694;8.934;2022-08-11T06:50:56;5.25;;;2.08;;
67595;SDS011;54410;48.694;8.934;2022-08-11T06:53:43;3.17;;;1.70;;
67595;SDS011;54410;48.694;8.934;2022-08-11T06:56:14;3.63;;;1.80;;
67595;SDS011;54410;48.694;8.934;2022-08-11T06:59:04;4.25;;;1.73;;
67595;SDS011;54410;48.694;8.934;2022-08-11T07:07:13;3.33;;;1.75;;
67595;SDS011;54410;48.694;8.934;2022-08-11T07:13:06;3.92;;;1.80;;
67595;SDS011;54410;48.694;8.934;2022-08-11T07:15:51;5.88;;;2.00;;
67595;SDS011;54410;48.694;8.934;2022-08-11T07:18:20;2.22;;;2.03;;
67595;SDS011;54410;48.694;8.934;2022-08-11T07:21:29;2.53;;;1.75;;
67595;SDS011;54410;48.694;8.934;2022-08-11T07:24:26;2.72;;;1.98;;
67595;SDS011;54410;48.694;8.934;2022-08-11T07:27:16;4.00;;;2.25;;
67595;SDS011;54410;48.694;8.934;2022-08-11T07:30:07;4.38;;;2.20;;
67595;SDS011;54410;48.694;8.934;2022-08-11T07:32:55;5.38;;;1.95;;
67595;SDS011;54410;48.694;8.934;2022-08-11T07:35:27;3.03;;;2.10;;
67595;SDS011;54410;48.694;8.934;2022-08-11T07:38:04;3.33;;;1.90;;
67595;SDS011;54410;48.694;8.934;2022-08-11T07:40:31;3.88;;;1.80;;
67595;SDS011;54410;48.694;8.934;2022-08-11T07:42:58;4.47;;;1.85;;
67595;SDS011;54410;48.694;8.934;2022-08-11T07:45:25;3.47;;;2.03;;
67595;SDS011;54410;48.694;8.934;2022-08-11T07:48:10;3.42;;;1.90;;
67595;SDS011;54410;48.694;8.934;2022-08-11T07:50:55;4.88;;;1.60;;
67595;SDS011;54410;48.694;8.934;2022-08-11T07:53:40;6.53;;;2.20;;
67595;SDS011;54410;48.694;8.934;2022-08-11T07:56:06;4.28;;;2.03;;
67595;SDS011;54410;48.694;8.934;2022-08-11T07:58:33;4.70;;;1.90;;
67595;SDS011;54410;48.694;8.934;2022-08-11T08:01:19;5.90;;;1.73;;
67595;SDS011;54410;48.694;8.934;2022-08-11T08:04:05;3.95;;;1.77;;
67595;SDS011;54410;48.694;8.934;2022-08-11T08:06:51;2.35;;;1.67;;
67595;SDS011;54410;48.694;8.934;2022-08-11T08:09:35;2.50;;;1.70;;
67595;SDS011;54410;48.694;8.934;2022-08-11T08:12:21;4.43;;;2.13;;
67595;SDS011;54410;48.694;8.934;2022-08-11T08:15:07;3.33;;;2.00;;
67595;SDS011;54410;48.694;8.934;2022-08-11T08:17:53;5.60;;;2.10;;
67595;SDS011;54410;48.694;8.934;2022-08-11T08:20:23;2.38;;;1.85;;
67595;SDS011;54410;48.694;8.934;2022-08-11T08:22:58;3.95;;;2.03;;
67595;SDS011;54410;48.694;8.934;2022-08-11T08:25:26;4.00;;;1.90;;
67595;SDS011;54410;48.694;8.934;2022-08-11T08:27:53;2.67;;;1.80;;
67595;SDS011;54410;48.694;8.934;2022-08-11T08:30:20;2.65;;;2.08;;
67595;SDS011;54410;48.694;8.934;2022-08-11T08:33:05;2.33;;;1.90;;
67595;SDS011;54410;48.694;8.934;2022-08-11T08:35:31;2.95;;;1.77;;
67595;SDS011;54410;48.694;8.934;2022-08-11T08:37:57;2.30;;;1.50;;
67595;SDS011;54410;48.694;8.934;2022-08-11T08:40:26;3.67;;;1.63;;
67595;SDS011;54410;48.694;8.934;2022-08-11T08:42:52;5.25;;;1.85;;
67595;SDS011;54410;48.694;8.934;2022-08-11T08:45:20;2.55;;;1.75;;
67595;SDS011;54410;48.694;8.934;2022-08-11T08:50:17;3.33;;;1.70;;
67595;SDS011;54410;48.694;8.934;2022-08-11T08:52:49;5.55;;;1.70;;
67595;SDS011;54410;48.694;8.934;2022-08-11T08:55:18;5.35;;;1.80;;
67595;SDS011;54410;48.694;8.934;2022-08-11T08:57:45;4.68;;;1.90;;
67595;SDS011;54410;48.694;8.934;2022-08-11T09:00:13;4.03;;;1.63;;
67595;SDS011;54410;48.694;8.934;2022-08-11T09:02:40;3.58;;;2.10;;
67595;SDS011;54410;48.694;8.934;2022-08-11T09:05:06;3.15;;;1.98;;
67595;SDS011;54410;48.694;8.934;2022-08-11T09:07:33;2.35;;;1.80;;
67595;SDS011;54410;48.694;8.934;2022-08-11T09:10:00;3.13;;;1.75;;
67595;SDS011;54410;48.694;8.934;2022-08-11T09:12:27;4.93;;;1.90;;
67595;SDS011;54410;48.694;8.934;2022-08-11T09:14:54;2.47;;;1.70;;
67595;SDS011;54410;48.694;8.934;2022-08-11T09:17:28;1.60;;;1.50;;
67595;SDS011;54410;48.694;8.934;2022-08-11T09:20:09;8.25;;;1.90;;
67595;SDS011;54410;48.694;8.934;2022-08-11T09:22:43;3.92;;;2.00;;
67595;SDS011;54410;48.694;8.934;2022-08-11T09:25:29;5.90;;;1.60;;
67595;SDS011;54410;48.694;8.934;2022-08-11T09:28:15;3.28;;;1.70;;
67595;SDS011;54410;48.694;8.934;2022-08-11T09:30:42;10.75;;;1.75;;
67595;SDS011;54410;48.694;8.934;2022-08-11T09:33:11;5.57;;;1.92;;
67595;SDS011;54410;48.694;8.934;2022-08-11T09:35:39;9.55;;;2.03;;
67595;SDS011;54410;48.694;8.934;2022-08-11T09:38:10;8.57;;;2.28;;
67595;SDS011;54410;48.694;8.934;2022-08-11T09:40:57;2.13;;;1.90;;
67595;SDS011;54410;48.694;8.934;2022-08-11T09:43:24;2.22;;;1.88;;
67595;SDS011;54410;48.694;8.934;2022-08-11T09:46:09;8.20;;;1.90;;
67595;SDS011;54410;48.694;8.934;2022-08-11T09:48:38;5.43;;;1.75;;
67595;SDS011;54410;48.694;8.934;2022-08-11T09:51:09;1.70;;;1.60;;
67595;SDS011;54410;48.694;8.934;2022-08-11T09:53:36;3.80;;;2.08;;
67595;SDS011;54410;48.694;8.934;2022-08-11T09:56:06;6.68;;;1.98;;
67595;SDS011;54410;48.694;8.934;2022-08-11T09:58:55;2.83;;;1.63;;
67595;SDS011;54410;48.694;8.934;2022-08-11T10:01:22;3.63;;;1.55;;
67595;SDS011;54410;48.694;8.934;2022-08-11T10:03:55;3.25;;;1.40;;
67595;SDS011;54410;48.694;8.934;2022-08-11T10:06:33;7.90;;;2.15;;
67595;SDS011;54410;48.694;8.934;2022-08-11T10:09:20;7.18;;;1.95;;
67595;SDS011;54410;48.694;8.934;2022-08-11T10:11:46;4.85;;;1.80;;
67595;SDS011;54410;48.694;8.934;2022-08-11T10:14:14;6.63;;;1.90;;
67595;SDS011;54410;48.694;8.934;2022-08-11T10:17:01;2.75;;;1.50;;
67595;SDS011;54410;48.694;8.934;2022-08-11T10:19:30;2.65;;;1.65;;
67595;SDS011;54410;48.694;8.934;2022-08-11T10:21:59;3.92;;;1.83;;
67595;SDS011;54410;48.694;8.934;2022-08-11T10:24:43;2.67;;;1.50;;
67595;SDS011;54410;48.694;8.934;2022-08-11T10:27:28;3.63;;;1.60;;
67595;SDS011;54410;48.694;8.934;2022-08-11T10:29:53;3.58;;;1.75;;
67595;SDS011;54410;48.694;8.934;2022-08-11T10:32:38;4.00;;;1.85;;
67595;SDS011;54410;48.694;8.934;2022-08-11T10:35:23;2.00;;;1.55;;
67595;SDS011;54410;48.694;8.934;2022-08-11T10:37:50;1.90;;;1.70;;
67595;SDS011;54410;48.694;8.934;2022-08-11T10:40:18;7.88;;;2.28;;
67595;SDS011;54410;48.694;8.934;2022-08-11T10:42:48;3.53;;;1.80;;
67595;SDS011;54410;48.694;8.934;2022-08-11T10:45:35;4.55;;;2.15;;
67595;SDS011;54410;48.694;8.934;2022-08-11T10:48:21;4.95;;;2.00;;
67595;SDS011;54410;48.694;8.934;2022-08-11T10:50:48;2.53;;;1.73;;
67595;SDS011;54410;48.694;8.934;2022-08-11T10:53:34;4.22;;;2.30;;
67595;SDS011;54410;48.694;8.934;2022-08-11T10:56:19;3.35;;;2.00;;
67595;SDS011;54410;48.694;8.934;2022-08-11T10:59:09;3.83;;;1.80;;
67595;SDS011;54410;48.694;8.934;2022-08-11T11:01:36;4.88;;;1.70;;
67595;SDS011;54410;48.694;8.934;2022-08-11T11:04:04;2.58;;;1.77;;
67595;SDS011;54410;48.694;8.934;2022-08-11T11:10:11;3.75;;;1.98;;
67595;SDS011;54410;48.694;8.934;2022-08-11T11:12:38;3.53;;;2.00;;
67595;SDS011;54410;48.694;8.934;2022-08-11T11:15:25;3.00;;;2.00;;
67595;SDS011;54410;48.694;8.934;2022-08-11T11:18:21;4.15;;;1.80;;
67595;SDS011;54410;48.694;8.934;2022-08-11T11:24:01;2.28;;;1.50;;
67595;SDS011;54410;48.694;8.934;2022-08-11T11:37:21;1.98;;;1.60;;
67595;SDS011;54410;48.694;8.934;2022-08-11T11:39:48;3.95;;;1.60;;
67595;SDS011;54410;48.694;8.934;2022-08-11T11:42:14;4.63;;;1.42;;
67595;SDS011;54410;48.694;8.934;2022-08-11T11:44:42;3.15;;;1.63;;
67595;SDS011;54410;48.694;8.934;2022-08-11T11:47:10;2.10;;;1.70;;
67595;SDS011;54410;48.694;8.934;2022-08-11T11:49:36;5.55;;;1.80;;
67595;SDS011;54410;48.694;8.934;2022-08-11T11:52:04;3.67;;;1.92;;
67595;SDS011;54410;48.694;8.934;2022-08-11T11:54:31;2.80;;;1.73;;
67595;SDS011;54410;48.694;8.934;2022-08-11T11:56:58;2.67;;;1.80;;
67595;SDS011;54410;48.694;8.934;2022-08-11T11:59:44;2.13;;;1.70;;
67595;SDS011;54410;48.694;8.934;2022-08-11T12:02:29;3.17;;;1.77;;
67595;SDS011;54410;48.694;8.934;2022-08-11T12:04:55;3.45;;;2.00;;
67595;SDS011;54410;48.694;8.934;2022-08-11T12:07:21;3.28;;;1.70;;
67595;SDS011;54410;48.694;8.934;2022-08-11T12:10:06;3.85;;;1.77;;
67595;SDS011;54410;48.694;8.934;2022-08-11T12:12:32;4.72;;;1.90;;
67595;SDS011;54410;48.694;8.934;2022-08-11T12:15:17;5.70;;;1.52;;
67595;SDS011;54410;48.694;8.934;2022-08-11T12:17:43;7.80;;;2.00;;
67595;SDS011;54410;48.694;8.934;2022-08-11T12:20:10;4.32;;;1.85;;
67595;SDS011;54410;48.694;8.934;2022-08-11T12:22:39;3.78;;;1.75;;
67595;SDS011;54410;48.694;8.934;2022-08-11T12:25:23;3.38;;;1.77;;
67595;SDS011;54410;48.694;8.934;2022-08-11T12:28:08;3.90;;;1.83;;
67595;SDS011;54410;48.694;8.934;2022-08-11T12:30:34;3.85;;;1.75;;
67595;SDS011;54410;48.694;8.934;2022-08-11T12:33:00;2.80;;;1.73;;
67595;SDS011;54410;48.694;8.934;2022-08-11T12:35:27;2.95;;;1.80;;
67595;SDS011;54410;48.694;8.934;2022-08-11T12:37:54;3.17;;;1.45;;
67595;SDS011;54410;48.694;8.934;2022-08-11T12:40:23;4.47;;;1.70;;
67595;SDS011;54410;48.694;8.934;2022-08-11T12:43:12;2.30;;;1.35;;
67595;SDS011;54410;48.694;8.934;2022-08-11T12:45:57;3.10;;;1.65;;
67595;SDS011;54410;48.694;8.934;2022-08-11T12:48:29;4.55;;;1.90;;
67595;SDS011;54410;48.694;8.934;2022-08-11T12:51:15;2.55;;;1.50;;
67595;SDS011;54410;48.694;8.934;2022-08-11T12:56:37;2.15;;;1.50;;
67595;SDS011;54410;48.694;8.934;2022-08-11T12:59:24;7.03;;;1.63;;
67595;SDS011;54410;48.694;8.934;2022-08-11T13:02:10;1.42;;;1.20;;
67595;SDS011;54410;48.694;8.934;2022-08-11T13:04:58;5.22;;;1.38;;
67595;SDS011;54410;48.694;8.934;2022-08-11T13:07:26;4.13;;;1.60;;
67595;SDS011;54410;48.694;8.934;2022-08-11T13:09:52;4.60;;;1.55;;
67595;SDS011;54410;48.694;8.934;2022-08-11T13:12:19;7.40;;;1.90;;
67595;SDS011;54410;48.694;8.934;2022-08-11T13:15:05;3.90;;;1.58;;
67595;SDS011;54410;48.694;8.934;2022-08-11T13:17:32;2.75;;;1.45;;
67595;SDS011;54410;48.694;8.934;2022-08-11T13:19:58;2.47;;;1.40;;
67595;SDS011;54410;48.694;8.934;2022-08-11T13:22:24;2.55;;;1.33;;
67595;SDS011;54410;48.694;8.934;2022-08-11T13:24:51;3.90;;;1.77;;
67595;SDS011;54410;48.694;8.934;2022-08-11T13:27:19;8.02;;;1.63;;
67595;SDS011;54410;48.694;8.934;2022-08-11T13:29:45;1.75;;;1.50;;
67595;SDS011;54410;48.694;8.934;2022-08-11T13:32:14;2.75;;;1.30;;
67595;SDS011;54410;48.694;8.934;2022-08-11T13:34:40;7.20;;;2.38;;
67595;SDS011;54410;48.694;8.934;2022-08-11T13:37:08;4.43;;;1.60;;
67595;SDS011;54410;48.694;8.934;2022-08-11T13:39:36;3.55;;;1.55;;
67595;SDS011;54410;48.694;8.934;2022-08-11T13:42:03;3.45;;;1.60;;
67595;SDS011;54410;48.694;8.934;2022-08-11T13:44:31;3.97;;;1.65;;
67595;SDS011;54410;48.694;8.934;2022-08-11T13:47:01;2.03;;;1.55;;
67595;SDS011;54410;48.694;8.934;2022-08-11T13:49:32;4.82;;;1.85;;
67595;SDS011;54410;48.694;8.934;2022-08-11T13:52:00;3.50;;;1.40;;
67595;SDS011;54410;48.694;8.934;2022-08-11T13:54:27;4.07;;;1.67;;
67595;SDS011;54410;48.694;8.934;2022-08-11T13:56:55;2.50;;;1.70;;
67595;SDS011;54410;48.694;8.934;2022-08-11T13:59:24;6.28;;;1.95;;
67595;SDS011;54410;48.694;8.934;2022-08-11T14:01:54;6.15;;;1.70;;
67595;SDS011;54410;48.694;8.934;2022-08-11T14:04:22;2.05;;;1.50;;
67595;SDS011;54410;48.694;8.934;2022-08-11T14:06:53;2.70;;;1.60;;
67595;SDS011;54410;48.694;8.934;2022-08-11T14:09:21;2.30;;;1.60;;
67595;SDS011;54410;48.694;8.934;2022-08-11T14:11:49;2.78;;;1.85;;
67595;SDS011;54410;48.694;8.934;2022-08-11T14:14:36;1.92;;;1.67;;
67595;SDS011;54410;48.694;8.934;2022-08-11T14:17:04;6.13;;;1.70;;
67595;SDS011;54410;48.694;8.934;2022-08-11T14:19:34;1.98;;;1.63;;
67595;SDS011;54410;48.694;8.934;2022-08-11T14:22:01;4.53;;;1.90;;
67595;SDS011;54410;48.694;8.934;2022-08-11T14:24:31;3.83;;;1.73;;
67595;SDS011;54410;48.694;8.934;2022-08-11T14:27:05;2.70;;;1.60;;
67595;SDS011;54410;48.694;8.934;2022-08-11T14:29:31;3.60;;;1.50;;
67595;SDS011;54410;48.694;8.934;2022-08-11T14:32:03;1.60;;;1.50;;
67595;SDS011;54410;48.694;8.934;2022-08-11T14:34:30;2.72;;;1.60;;
67595;SDS011;54410;48.694;8.934;2022-08-11T14:36:59;4.50;;;1.90;;
67595;SDS011;54410;48.694;8.934;2022-08-11T14:39:31;3.03;;;1.40;;
67595;SDS011;54410;48.694;8.934;2022-08-11T14:42:01;4.22;;;1.80;;
67595;SDS011;54410;48.694;8.934;2022-08-11T14:44:56;4.53;;;1.75;;
67595;SDS011;54410;48.694;8.934;2022-08-11T14:47:43;2.80;;;1.48;;
67595;SDS011;54410;48.694;8.934;2022-08-11T14:50:11;4.90;;;1.60;;
67595;SDS011;54410;48.694;8.934;2022-08-11T14:52:42;3.92;;;1.60;;
67595;SDS011;54410;48.694;8.934;2022-08-11T14:55:16;3.65;;;1.40;;
67595;SDS011;54410;48.694;8.934;2022-08-11T14:58:02;2.05;;;1.58;;
67595;SDS011;54410;48.694;8.934;2022-08-11T15:00:28;1.60;;;1.50;;
67595;SDS011;54410;48.694;8.934;2022-08-11T15:02:55;3.25;;;1.60;;
67595;SDS011;54410;48.694;8.934;2022-08-11T15:05:34;5.13;;;1.40;;
67595;SDS011;54410;48.694;8.934;2022-08-11T15:08:04;1.80;;;1.60;;
67595;SDS011;54410;48.694;8.934;2022-08-11T15:10:31;3.10;;;1.55;;
67595;SDS011;54410;48.694;8.934;2022-08-11T15:12:57;3.45;;;1.48;;
67595;SDS011;54410;48.694;8.934;2022-08-11T15:15:23;2.72;;;1.40;;
67595;SDS011;54410;48.694;8.934;2022-08-11T15:18:10;3.95;;;1.42;;
67595;SDS011;54410;48.694;8.934;2022-08-11T15:20:37;3.78;;;1.52;;
67595;SDS011;54410;48.694;8.934;2022-08-11T15:23:22;1.83;;;1.20;;
67595;SDS011;54410;48.694;8.934;2022-08-11T15:26:12;2.30;;;1.30;;
67595;SDS011;54410;48.694;8.934;2022-08-11T15:28:39;3.80;;;1.80;;
67595;SDS011;54410;48.694;8.934;2022-08-11T15:31:25;2.92;;;1.30;;
67595;SDS011;54410;48.694;8.934;2022-08-11T15:34:11;1.77;;;1.40;;
67595;SDS011;54410;48.694;8.934;2022-08-11T15:36:58;2.13;;;1.38;;
67595;SDS011;54410;48.694;8.934;2022-08-11T15:39:50;1.88;;;1.38;;
67595;SDS011;54410;48.694;8.934;2022-08-11T15:42:39;4.20;;;1.60;;
67595;SDS011;54410;48.694;8.934;2022-08-11T15:45:38;3.80;;;1.58;;
67595;SDS011;54410;48.694;8.934;2022-08-11T15:48:22;2.35;;;1.38;;
67595;SDS011;54410;48.694;8.934;2022-08-11T15:50:51;3.88;;;1.25;;
67595;SDS011;54410;48.694;8.934;2022-08-11T15:55:49;4.35;;;1.40;;
67595;SDS011;54410;48.694;8.934;2022-08-11T15:58:15;1.52;;;1.30;;
67595;SDS011;54410;48.694;8.934;2022-08-11T16:01:02;4.15;;;1.35;;
67595;SDS011;54410;48.694;8.934;2022-08-11T16:03:55;1.88;;;1.30;;
67595;SDS011;54410;48.694;8.934;2022-08-11T16:06:38;3.22;;;1.20;;
67595;SDS011;54410;48.694;8.934;2022-08-11T16:09:14;3.90;;;1.45;;
67595;SDS011;54410;48.694;8.934;2022-08-11T16:11:41;5.38;;;1.40;;
67595;SDS011;54410;48.694;8.934;2022-08-11T16:14:08;3.20;;;1.23;;
67595;SDS011;54410;48.694;8.934;2022-08-11T16:16:54;3.47;;;1.50;;
67595;SDS011;54410;48.694;8.934;2022-08-11T16:19:22;1.70;;;1.25;;
67595;SDS011;54410;48.694;8.934;2022-08-11T16:21:49;3.00;;;1.27;;
67595;SDS011;54410;48.694;8.934;2022-08-11T16:24:17;3.55;;;1.20;;
67595;SDS011;54410;48.694;8.934;2022-08-11T16:26:43;4.28;;;1.60;;
67595;SDS011;54410;48.694;8.934;2022-08-11T16:29:10;4.07;;;1.50;;
67595;SDS011;54410;48.694;8.934;2022-08-11T16:31:37;3.25;;;1.50;;
67595;SDS011;54410;48.694;8.934;2022-08-11T16:34:03;3.30;;;1.45;;
67595;SDS011;54410;48.694;8.934;2022-08-11T16:36:50;2.53;;;1.30;;
67595;SDS011;54410;48.694;8.934;2022-08-11T16:39:34;1.88;;;1.60;;
67595;SDS011;54410;48.694;8.934;2022-08-11T16:42:00;5.30;;;1.55;;
67595;SDS011;54410;48.694;8.934;2022-08-11T16:44:44;1.52;;;1.23;;
67595;SDS011;54410;48.694;8.934;2022-08-11T16:47:29;2.83;;;1.50;;
67595;SDS011;54410;48.694;8.934;2022-08-11T16:49:55;4.85;;;1.38;;
67595;SDS011;54410;48.694;8.934;2022-08-11T16:52:21;5.97;;;1.50;;
67595;SDS011;54410;48.694;8.934;2022-08-11T16:54:47;1.58;;;1.40;;
67595;SDS011;54410;48.694;8.934;2022-08-11T17:00:00;2.20;;;1.30;;
67595;SDS011;54410;48.694;8.934;2022-08-11T17:02:29;3.28;;;1.52;;
67595;SDS011;54410;48.694;8.934;2022-08-11T17:05:16;4.07;;;1.45;;
67595;SDS011;54410;48.694;8.934;2022-08-11T17:08:02;2.10;;;1.50;;
67595;SDS011;54410;48.694;8.934;2022-08-11T17:10:49;3.25;;;1.50;;
67595;SDS011;54410;48.694;8.934;2022-08-11T17:16:20;2.67;;;1.60;;
67595;SDS011;54410;48.694;8.934;2022-08-11T17:21:24;4.38;;;1.45;;
67595;SDS011;54410;48.694;8.934;2022-08-11T17:23:53;3.38;;;1.60;;
67595;SDS011;54410;48.694;8.934;2022-08-11T17:26:24;3.95;;;1.77;;
67595;SDS011;54410;48.694;8.934;2022-08-11T17:28:53;3.45;;;1.48;;
67595;SDS011;54410;48.694;8.934;2022-08-11T17:31:22;2.20;;;1.63;;
67595;SDS011;54410;48.694;8.934;2022-08-11T17:34:08;2.65;;;1.40;;
67595;SDS011;54410;48.694;8.934;2022-08-11T17:36:53;5.22;;;1.42;;
67595;SDS011;54410;48.694;8.934;2022-08-11T17:39:20;2.30;;;1.48;;
67595;SDS011;54410;48.694;8.934;2022-08-11T17:41:48;2.85;;;1.63;;
67595;SDS011;54410;48.694;8.934;2022-08-11T17:44:33;3.10;;;1.20;;
67595;SDS011;54410;48.694;8.934;2022-08-11T17:47:19;2.90;;;1.70;;
67595;SDS011;54410;48.694;8.934;2022-08-11T17:50:04;3.83;;;1.70;;
67595;SDS011;54410;48.694;8.934;2022-08-11T17:52:30;2.50;;;1.60;;
67595;SDS011;54410;48.694;8.934;2022-08-11T17:55:15;2.53;;;1.70;;
67595;SDS011;54410;48.694;8.934;2022-08-11T17:58:00;3.03;;;1.88;;
67595;SDS011;54410;48.694;8.934;2022-08-11T18:00:46;3.80;;;1.60;;
67595;SDS011;54410;48.694;8.934;2022-08-11T18:03:13;3.55;;;1.40;;
67595;SDS011;54410;48.694;8.934;2022-08-11T18:05:59;5.70;;;1.85;;
67595;SDS011;54410;48.694;8.934;2022-08-11T18:08:26;4.35;;;1.55;;
67595;SDS011;54410;48.694;8.934;2022-08-11T18:11:14;4.53;;;1.90;;
67595;SDS011;54410;48.694;8.934;2022-08-11T18:14:00;5.30;;;1.90;;
67595;SDS011;54410;48.694;8.934;2022-08-11T18:16:46;9.95;;;2.00;;
67595;SDS011;54410;48.694;8.934;2022-08-11T18:19:31;6.22;;;1.55;;
67595;SDS011;54410;48.694;8.934;2022-08-11T18:22:16;11.48;;;1.90;;
67595;SDS011;54410;48.694;8.934;2022-08-11T18:25:07;8.95;;;2.20;;
67595;SDS011;54410;48.694;8.934;2022-08-11T18:27:53;15.60;;;2.15;;
67595;SDS011;54410;48.694;8.934;2022-08-11T18:30:39;13.90;;;2.28;;
67595;SDS011;54410;48.694;8.934;2022-08-11T18:33:25;7.28;;;1.85;;
67595;SDS011;54410;48.694;8.934;2022-08-11T18:36:12;5.20;;;1.60;;
67595;SDS011;54410;48.694;8.934;2022-08-11T18:39:00;2.38;;;1.52;;
67595;SDS011;54410;48.694;8.934;2022-08-11T18:41:45;5.85;;;1.88;;
67595;SDS011;54410;48.694;8.934;2022-08-11T18:44:30;5.32;;;1.85;;
67595;SDS011;54410;48.694;8.934;2022-08-11T18:47:16;4.05;;;1.65;;
67595;SDS011;54410;48.694;8.934;2022-08-11T18:50:02;4.20;;;1.70;;
67595;SDS011;54410;48.694;8.934;2022-08-11T18:52:50;3.97;;;1.60;;
67595;SDS011;54410;48.694;8.934;2022-08-11T18:55:35;4.40;;;1.65;;
67595;SDS011;54410;48.694;8.934;2022-08-11T18:58:20;4.75;;;2.33;;
67595;SDS011;54410;48.694;8.934;2022-08-11T19:01:08;3.30;;;2.15;;
67595;SDS011;54410;48.694;8.934;2022-08-11T19:03:56;3.60;;;1.85;;
67595;SDS011;54410;48.694;8.934;2022-08-11T19:06:41;9.05;;;1.95;;
67595;SDS011;54410;48.694;8.934;2022-08-11T19:09:26;2.90;;;1.77;;
67595;SDS011;54410;48.694;8.934;2022-08-11T19:12:12;5.68;;;1.83;;
67595;SDS011;54410;48.694;8.934;2022-08-11T19:14:57;3.00;;;1.90;;
67595;SDS011;54410;48.694;8.934;2022-08-11T19:17:43;2.90;;;1.60;;
67595;SDS011;54410;48.694;8.934;2022-08-11T19:20:29;3.88;;;1.95;;